createdAt,value
2023-04-16T00:01:17.060Z,8.70
2023-04-16T00:03:43.695Z,8.71
2023-04-16T00:06:12.498Z,8.71
2023-04-16T00:08:38.924Z,8.74
2023-04-16T00:11:05.659Z,8.73
2023-04-16T00:13:32.159Z,8.75
2023-04-16T00:15:59.147Z,8.73
2023-04-16T00:18:26.109Z,8.72
2023-04-16T00:20:53.503Z,8.76
2023-04-16T00:23:20.019Z,8.75
2023-04-16T00:25:46.546Z,8.75
2023-04-16T00:28:12.991Z,8.78
2023-04-16T00:30:39.940Z,8.77
2023-04-16T00:33:06.647Z,8.75
2023-04-16T00:35:33.077Z,8.75
2023-04-16T00:37:59.520Z,8.75
2023-04-16T00:40:29.572Z,8.78
2023-04-16T00:42:55.980Z,8.75
2023-04-16T00:45:22.689Z,8.75
2023-04-16T00:47:49.693Z,8.74
2023-04-16T00:50:17.519Z,8.74
2023-04-16T00:52:43.915Z,8.74
2023-04-16T00:55:13.317Z,8.74
2023-04-16T00:57:39.790Z,8.68
2023-04-16T01:00:06.912Z,8.71
2023-04-16T01:02:34.149Z,8.70
2023-04-16T01:05:01.968Z,8.68
2023-04-16T01:07:28.464Z,8.67
2023-04-16T01:09:55.135Z,8.67
2023-04-16T01:12:21.735Z,8.69
2023-04-16T01:14:48.491Z,8.66
2023-04-16T01:17:15.044Z,8.67
2023-04-16T01:19:41.933Z,8.70
2023-04-16T01:22:08.411Z,8.70
2023-04-16T01:24:35.180Z,8.74
2023-04-16T01:27:01.618Z,8.76
2023-04-16T01:29:28.082Z,8.76
2023-04-16T01:31:54.522Z,8.73
2023-04-16T01:34:20.993Z,8.73
2023-04-16T01:36:47.358Z,8.73
2023-04-16T01:39:15.733Z,8.74
2023-04-16T01:41:42.531Z,8.75
2023-04-16T01:44:09.156Z,8.76
2023-04-16T01:46:35.827Z,8.75
2023-04-16T01:49:02.859Z,8.74
2023-04-16T01:51:29.301Z,8.73
2023-04-16T01:53:56.165Z,8.70
2023-04-16T01:56:22.517Z,8.67
2023-04-16T01:58:49.026Z,8.70
2023-04-16T02:01:16.080Z,8.73
2023-04-16T02:03:42.741Z,8.75
2023-04-16T02:06:09.440Z,8.74
2023-04-16T02:08:36.113Z,8.76
2023-04-16T02:11:02.619Z,8.74
2023-04-16T02:13:29.028Z,8.72
2023-04-16T02:15:55.463Z,8.73
2023-04-16T02:18:21.875Z,8.77
2023-04-16T02:20:49.746Z,8.80
2023-04-16T02:23:16.334Z,8.83
2023-04-16T02:25:44.132Z,8.86
2023-04-16T02:28:16.332Z,8.90
2023-04-16T02:30:43.434Z,8.89
2023-04-16T02:33:11.789Z,8.86
2023-04-16T02:35:39.172Z,8.85
2023-04-16T02:38:05.998Z,8.86
2023-04-16T02:40:32.529Z,8.84
2023-04-16T02:42:59.023Z,8.82
2023-04-16T02:45:25.556Z,8.85
2023-04-16T02:47:52.042Z,8.83
2023-04-16T02:50:18.791Z,8.84
2023-04-16T02:52:45.335Z,8.82
2023-04-16T02:55:12.057Z,8.81
2023-04-16T02:57:38.514Z,8.81
2023-04-16T03:00:05.501Z,8.82
2023-04-16T03:02:31.993Z,8.81
2023-04-16T03:04:58.566Z,8.76
2023-04-16T03:07:25.134Z,8.79
2023-04-16T03:09:51.550Z,8.80
2023-04-16T03:12:17.927Z,8.83
2023-04-16T03:14:44.376Z,8.83
2023-04-16T03:17:10.780Z,8.80
2023-04-16T03:19:37.236Z,8.82
2023-04-16T03:22:03.714Z,8.84
2023-04-16T03:24:30.112Z,8.83
2023-04-16T03:26:57.933Z,8.83
2023-04-16T03:29:24.742Z,8.81
2023-04-16T03:31:51.439Z,8.82
2023-04-16T03:34:17.798Z,8.81
2023-04-16T03:36:44.213Z,8.82
2023-04-16T03:39:10.858Z,8.86
2023-04-16T03:41:37.441Z,8.86
2023-04-16T03:44:03.815Z,8.83
2023-04-16T03:46:30.427Z,8.85
2023-04-16T03:48:56.901Z,8.85
2023-04-16T03:51:23.429Z,8.85
2023-04-16T03:53:49.874Z,8.85
2023-04-16T03:56:16.291Z,8.88
2023-04-16T03:58:42.684Z,8.85
2023-04-16T04:01:09.053Z,8.85
2023-04-16T04:03:35.539Z,8.86
2023-04-16T04:06:07.335Z,8.87
2023-04-16T04:08:33.789Z,8.86
2023-04-16T04:11:00.180Z,8.86
2023-04-16T04:13:26.754Z,8.87
2023-04-16T04:15:53.137Z,8.85
2023-04-16T04:18:19.514Z,8.81
2023-04-16T04:20:45.874Z,8.82
2023-04-16T04:23:12.269Z,8.86
2023-04-16T04:25:38.709Z,8.86
2023-04-16T04:28:05.142Z,8.88
2023-04-16T04:30:31.634Z,8.87
2023-04-16T04:32:58.270Z,8.86
2023-04-16T04:35:24.693Z,8.83
2023-04-16T04:37:51.062Z,8.80
2023-04-16T04:40:17.493Z,8.77
2023-04-16T04:42:43.981Z,8.79
2023-04-16T04:45:11.414Z,8.75
2023-04-16T04:47:37.885Z,8.76
2023-04-16T04:50:04.753Z,8.76
2023-04-16T04:52:31.251Z,8.76
2023-04-16T04:54:57.713Z,8.75
2023-04-16T04:57:24.110Z,8.75
2023-04-16T04:59:50.805Z,8.78
2023-04-16T05:02:17.319Z,8.82
2023-04-16T05:04:43.723Z,8.82
2023-04-16T05:07:10.156Z,8.83
2023-04-16T05:09:36.513Z,8.80
2023-04-16T05:12:03.942Z,8.78
2023-04-16T05:14:30.386Z,8.77
2023-04-16T05:16:56.830Z,8.78
2023-04-16T05:19:23.285Z,8.81
2023-04-16T05:21:49.721Z,8.87
2023-04-16T05:24:16.121Z,8.91
2023-04-16T05:26:42.538Z,8.91
2023-04-16T05:29:09.121Z,8.93
2023-04-16T05:31:35.923Z,8.88
2023-04-16T05:34:02.364Z,8.84
2023-04-16T05:36:28.840Z,8.85
2023-04-16T05:38:55.236Z,8.86
2023-04-16T05:41:21.670Z,8.83
2023-04-16T05:43:48.043Z,8.83
2023-04-16T05:46:14.465Z,8.83
2023-04-16T05:48:40.858Z,8.84
2023-04-16T05:51:07.366Z,8.84
2023-04-16T05:53:33.789Z,8.86
2023-04-16T05:56:00.185Z,8.88
2023-04-16T05:58:26.548Z,8.92
2023-04-16T06:00:53.029Z,8.96
2023-04-16T06:03:19.496Z,8.94
2023-04-16T06:05:46.063Z,8.95
2023-04-16T06:08:12.494Z,8.99
2023-04-16T06:10:39.168Z,8.96
2023-04-16T06:13:05.708Z,8.98
2023-04-16T06:15:32.131Z,8.94
2023-04-16T06:18:00.715Z,8.95
2023-04-16T06:20:27.391Z,8.95
2023-04-16T06:22:53.817Z,8.94
2023-04-16T06:25:20.259Z,8.95
2023-04-16T06:27:46.628Z,9.00
2023-04-16T06:30:14.414Z,9.01
2023-04-16T06:32:42.059Z,8.97
2023-04-16T06:35:08.986Z,9.00
2023-04-16T06:37:35.539Z,9.02
2023-04-16T06:40:02.158Z,9.02
2023-04-16T06:42:28.643Z,9.03
2023-04-16T06:44:55.024Z,9.05
2023-04-16T06:47:21.419Z,9.05
2023-04-16T06:49:47.828Z,9.06
2023-04-16T06:52:14.209Z,9.06
2023-04-16T06:54:40.644Z,9.05
2023-04-16T06:57:07.064Z,9.10
2023-04-16T06:59:33.491Z,9.13
2023-04-16T07:02:00.039Z,9.15
2023-04-16T07:04:26.592Z,9.17
2023-04-16T07:06:53.022Z,9.19
2023-04-16T07:09:19.448Z,9.19
2023-04-16T07:11:46.978Z,9.18
2023-04-16T07:14:13.441Z,9.21
2023-04-16T07:16:40.651Z,9.18
2023-04-16T07:19:07.125Z,9.19
2023-04-16T07:21:33.672Z,9.19
2023-04-16T07:24:00.818Z,9.19
2023-04-16T07:26:27.256Z,9.19
2023-04-16T07:28:53.673Z,9.23
2023-04-16T07:31:20.257Z,9.25
2023-04-16T07:33:46.746Z,9.22
2023-04-16T07:36:13.851Z,9.17
2023-04-16T07:38:40.195Z,9.21
2023-04-16T07:41:06.566Z,9.26
2023-04-16T07:43:32.972Z,9.29
2023-04-16T07:45:59.441Z,9.31
2023-04-16T07:48:26.009Z,9.32
2023-04-16T07:50:52.591Z,9.31
2023-04-16T07:53:19.008Z,9.32
2023-04-16T07:55:45.575Z,9.33
2023-04-16T07:58:12.023Z,9.31
2023-04-16T08:00:39.462Z,9.34
2023-04-16T08:03:06.318Z,9.37
2023-04-16T08:05:32.866Z,9.30
2023-04-16T08:07:59.223Z,9.33
2023-04-16T08:10:25.693Z,9.36
2023-04-16T08:12:52.128Z,9.38
2023-04-16T08:15:18.642Z,9.39
2023-04-16T08:17:45.536Z,9.43
2023-04-16T08:20:15.031Z,9.48
2023-04-16T08:22:43.417Z,9.49
2023-04-16T08:25:10.269Z,9.49
2023-04-16T08:27:36.701Z,9.49
2023-04-16T08:30:03.708Z,9.49
2023-04-16T08:32:30.130Z,9.53
2023-04-16T08:34:57.569Z,9.56
2023-04-16T08:37:25.274Z,9.59
2023-04-16T08:39:51.706Z,9.61
2023-04-16T08:42:31.306Z,9.61
2023-04-16T08:45:07.577Z,9.62
2023-04-16T08:47:36.817Z,9.66
2023-04-16T08:50:05.065Z,9.66
2023-04-16T08:52:32.141Z,9.69
2023-04-16T08:55:12.704Z,9.75
2023-04-16T08:57:43.605Z,9.75
2023-04-16T09:00:12.027Z,9.72
2023-04-16T09:02:39.173Z,9.73
2023-04-16T09:05:07.425Z,9.78
2023-04-16T09:07:35.550Z,9.78
2023-04-16T09:10:03.335Z,9.82
2023-04-16T09:12:31.291Z,9.86
2023-04-16T09:15:01.065Z,9.98
2023-04-16T09:17:27.997Z,10.00
2023-04-16T09:19:54.932Z,9.98
2023-04-16T09:22:21.470Z,9.97
2023-04-16T09:24:47.840Z,9.97
2023-04-16T09:27:14.245Z,9.98
2023-04-16T09:29:41.594Z,10.02
2023-04-16T09:32:09.674Z,10.07
2023-04-16T09:35:00.674Z,10.09
2023-04-16T09:37:31.632Z,10.10
2023-04-16T09:39:59.189Z,10.09
2023-04-16T09:42:27.409Z,10.13
2023-04-16T09:44:55.734Z,10.12
2023-04-16T09:47:38.115Z,10.13
2023-04-16T09:50:04.926Z,10.13
2023-04-16T09:52:31.285Z,10.11
2023-04-16T09:54:57.647Z,10.11
2023-04-16T09:57:25.032Z,10.14
2023-04-16T09:59:58.777Z,10.08
2023-04-16T10:02:29.217Z,10.09
2023-04-16T10:04:57.396Z,10.05
2023-04-16T10:07:29.161Z,10.10
2023-04-16T10:09:55.993Z,10.14
2023-04-16T10:12:22.430Z,10.21
2023-04-16T10:14:50.270Z,10.18
2023-04-16T10:17:17.275Z,10.11
2023-04-16T10:19:44.328Z,10.14
2023-04-16T10:22:11.484Z,10.15
2023-04-16T10:24:38.726Z,10.23
2023-04-16T10:27:05.264Z,10.32
2023-04-16T10:29:32.720Z,10.33
2023-04-16T10:32:00.043Z,10.31
2023-04-16T10:34:28.859Z,10.37
2023-04-16T10:36:56.133Z,10.35
2023-04-16T10:39:24.166Z,10.34
2023-04-16T10:41:51.005Z,10.32
2023-04-16T10:44:19.065Z,10.32
2023-04-16T10:46:52.071Z,10.38
2023-04-16T10:49:25.906Z,10.43
2023-04-16T10:51:57.417Z,10.44
2023-04-16T10:54:28.827Z,10.42
2023-04-16T10:57:04.265Z,10.38
2023-04-16T10:59:33.322Z,10.64
2023-04-16T11:02:02.096Z,11.03
2023-04-16T11:04:33.926Z,11.13
2023-04-16T11:07:19.310Z,11.20
2023-04-16T11:09:50.418Z,11.48
2023-04-16T11:12:18.917Z,11.82
2023-04-16T11:14:52.941Z,11.71
2023-04-16T11:17:21.303Z,11.62
2023-04-16T11:19:48.266Z,11.45
2023-04-16T11:22:17.364Z,11.14
2023-04-16T11:24:45.581Z,10.92
2023-04-16T11:27:15.946Z,10.92
2023-04-16T11:29:43.537Z,10.85
2023-04-16T11:32:20.601Z,10.84
2023-04-16T11:34:47.152Z,10.79
2023-04-16T11:37:13.674Z,10.73
2023-04-16T11:39:52.947Z,10.74
2023-04-16T11:42:22.924Z,10.65
2023-04-16T11:44:54.316Z,10.61
2023-04-16T11:47:21.414Z,10.51
2023-04-16T11:49:47.996Z,10.50
2023-04-16T11:52:25.162Z,10.59
2023-04-16T11:54:51.738Z,10.66
2023-04-16T11:57:24.914Z,10.72
2023-04-16T12:00:02.450Z,10.70
2023-04-16T12:02:44.905Z,10.74
2023-04-16T12:05:38.859Z,10.76
2023-04-16T12:08:07.636Z,10.76
2023-04-16T12:10:36.562Z,10.78
2023-04-16T12:13:17.012Z,10.86
2023-04-16T12:15:47.808Z,10.90
2023-04-16T12:18:16.274Z,10.87
2023-04-16T12:20:44.452Z,10.91
2023-04-16T12:23:22.007Z,10.91
2023-04-16T12:25:49.932Z,10.88
2023-04-16T12:28:30.878Z,11.03
2023-04-16T12:30:57.574Z,11.08
2023-04-16T12:33:24.193Z,11.02
2023-04-16T12:35:50.948Z,10.96
2023-04-16T12:38:17.407Z,10.86
2023-04-16T12:40:44.035Z,10.87
2023-04-16T12:43:10.705Z,10.87
2023-04-16T12:45:38.283Z,10.86
2023-04-16T12:48:04.973Z,10.90
2023-04-16T12:50:31.597Z,10.91
2023-04-16T12:52:58.551Z,10.87
2023-04-16T12:55:25.840Z,10.88
2023-04-16T12:57:55.620Z,10.92
2023-04-16T13:00:22.485Z,10.94
2023-04-16T13:02:49.019Z,10.96
2023-04-16T13:05:16.615Z,10.98
2023-04-16T13:07:43.234Z,10.98
2023-04-16T13:10:10.443Z,11.02
2023-04-16T13:12:36.856Z,11.05
2023-04-16T13:15:03.550Z,11.05
2023-04-16T13:17:29.980Z,11.12
2023-04-16T13:19:56.440Z,11.16
2023-04-16T13:22:22.862Z,11.14
2023-04-16T13:24:49.783Z,11.20
2023-04-16T13:27:16.860Z,11.20
2023-04-16T13:29:43.250Z,11.16
2023-04-16T13:32:09.638Z,11.13
2023-04-16T13:34:36.064Z,11.13
2023-04-16T13:37:02.526Z,11.20
2023-04-16T13:39:28.976Z,11.20
2023-04-16T13:41:55.491Z,11.17
2023-04-16T13:44:21.919Z,11.17
2023-04-16T13:46:48.384Z,11.20
2023-04-16T13:49:15.023Z,11.18
2023-04-16T13:51:47.157Z,11.14
2023-04-16T13:54:13.546Z,11.15
2023-04-16T13:56:40.760Z,11.15
2023-04-16T13:59:08.063Z,11.11
2023-04-16T14:01:34.589Z,11.11
2023-04-16T14:04:06.295Z,11.13
2023-04-16T14:06:34.306Z,11.16
2023-04-16T14:09:01.182Z,11.13
2023-04-16T14:11:27.761Z,11.23
2023-04-16T14:13:54.503Z,11.33
2023-04-16T14:16:20.968Z,11.46
2023-04-16T14:18:47.479Z,11.46
2023-04-16T14:21:13.949Z,11.39
2023-04-16T14:23:40.365Z,11.35
2023-04-16T14:26:06.769Z,11.31
2023-04-16T14:28:33.284Z,11.39
2023-04-16T14:30:59.698Z,11.83
2023-04-16T14:33:26.307Z,12.12
2023-04-16T14:35:52.833Z,12.07
2023-04-16T14:38:19.349Z,12.35
2023-04-16T14:40:45.919Z,12.50
2023-04-16T14:43:12.365Z,12.31
2023-04-16T14:45:38.982Z,11.98
2023-04-16T14:48:06.727Z,11.75
2023-04-16T14:50:38.155Z,11.65
2023-04-16T14:53:05.665Z,11.52
2023-04-16T14:55:32.608Z,11.49
2023-04-16T14:57:59.606Z,11.55
2023-04-16T15:00:26.245Z,11.60
2023-04-16T15:02:54.325Z,11.63
2023-04-16T15:05:21.235Z,11.68
2023-04-16T15:07:47.663Z,11.67
2023-04-16T15:10:14.267Z,11.71
2023-04-16T15:12:40.945Z,11.73
2023-04-16T15:15:08.225Z,11.68
2023-04-16T15:17:34.877Z,11.63
2023-04-16T15:20:01.568Z,11.67
2023-04-16T15:22:28.126Z,11.72
2023-04-16T15:24:54.525Z,11.74
2023-04-16T15:27:21.100Z,11.71
2023-04-16T15:29:49.270Z,11.63
2023-04-16T15:32:15.752Z,11.61
2023-04-16T15:34:42.188Z,11.63
2023-04-16T15:37:09.634Z,11.65
2023-04-16T15:39:36.012Z,11.59
2023-04-16T15:42:07.192Z,11.51
2023-04-16T15:44:33.993Z,11.49
2023-04-16T15:47:00.752Z,11.47
2023-04-16T15:49:27.199Z,11.40
2023-04-16T15:51:53.801Z,11.32
2023-04-16T15:54:20.312Z,11.26
2023-04-16T15:56:47.092Z,11.29
2023-04-16T15:59:13.732Z,11.29
2023-04-16T16:01:40.448Z,11.31
2023-04-16T16:04:07.452Z,11.28
2023-04-16T16:06:34.495Z,11.31
2023-04-16T16:09:00.908Z,11.40
2023-04-16T16:11:27.653Z,11.45
2023-04-16T16:13:54.159Z,11.49
2023-04-16T16:16:21.712Z,11.48
2023-04-16T16:18:48.308Z,11.41
2023-04-16T16:21:14.790Z,11.37
2023-04-16T16:23:41.305Z,11.38
2023-04-16T16:26:07.688Z,11.35
2023-04-16T16:28:37.442Z,11.30
2023-04-16T16:31:06.046Z,11.24
2023-04-16T16:33:32.878Z,11.15
2023-04-16T16:35:59.288Z,11.07
2023-04-16T16:38:25.864Z,11.10
2023-04-16T16:40:52.268Z,11.11
2023-04-16T16:43:18.680Z,11.09
2023-04-16T16:45:45.167Z,11.09
2023-04-16T16:48:11.619Z,10.99
2023-04-16T16:50:38.065Z,10.97
2023-04-16T16:53:04.573Z,11.00
2023-04-16T16:55:31.089Z,10.96
2023-04-16T16:57:58.361Z,10.91
2023-04-16T17:00:24.918Z,10.92
2023-04-16T17:02:52.062Z,10.90
2023-04-16T17:05:18.747Z,10.85
2023-04-16T17:07:45.754Z,10.81
2023-04-16T17:10:15.838Z,10.80
2023-04-16T17:12:42.288Z,10.82
2023-04-16T17:15:09.232Z,10.80
2023-04-16T17:17:35.894Z,10.79
2023-04-16T17:20:08.067Z,10.79
2023-04-16T17:22:34.600Z,10.84
2023-04-16T17:25:01.347Z,10.75
2023-04-16T17:27:29.327Z,10.65
2023-04-16T17:30:00.007Z,10.63
2023-04-16T17:32:27.058Z,10.60
2023-04-16T17:34:56.940Z,10.56
2023-04-16T17:37:23.527Z,10.53
2023-04-16T17:39:51.033Z,10.50
2023-04-16T17:42:17.744Z,10.48
2023-04-16T17:44:44.428Z,10.47
2023-04-16T17:47:10.822Z,10.45
2023-04-16T17:49:37.248Z,10.45
2023-04-16T17:52:03.837Z,10.42
2023-04-16T17:54:30.434Z,10.37
2023-04-16T17:56:57.590Z,10.31
2023-04-16T17:59:24.008Z,10.27
2023-04-16T18:01:50.640Z,10.27
2023-04-16T18:04:17.516Z,10.26
2023-04-16T18:06:44.484Z,10.21
2023-04-16T18:09:11.957Z,10.07
2023-04-16T18:11:38.464Z,10.03
2023-04-16T18:14:04.908Z,9.97
2023-04-16T18:16:31.415Z,9.90
2023-04-16T18:18:57.917Z,9.85
2023-04-16T18:21:24.520Z,9.83
2023-04-16T18:23:50.926Z,9.84
2023-04-16T18:26:20.410Z,9.84
2023-04-16T18:28:48.624Z,9.76
2023-04-16T18:31:15.282Z,9.67
2023-04-16T18:33:55.743Z,9.66
2023-04-16T18:36:23.634Z,9.62
2023-04-16T18:38:59.942Z,9.61
2023-04-16T18:41:27.941Z,9.53
2023-04-16T18:43:54.433Z,9.49
2023-04-16T18:46:20.847Z,9.53
2023-04-16T18:48:47.235Z,9.53
2023-04-16T18:51:15.557Z,9.58
2023-04-16T18:53:44.269Z,9.62
2023-04-16T18:56:11.119Z,9.58
2023-04-16T18:58:37.898Z,9.54
2023-04-16T19:01:04.768Z,9.58
2023-04-16T19:03:31.863Z,9.62
2023-04-16T19:05:58.359Z,9.59
2023-04-16T19:08:24.747Z,9.62
2023-04-16T19:10:51.227Z,9.57
2023-04-16T19:13:17.587Z,9.54
2023-04-16T19:15:43.963Z,9.55
2023-04-16T19:18:12.794Z,9.49
2023-04-16T19:20:41.335Z,9.45
2023-04-16T19:23:09.118Z,9.43
2023-04-16T19:25:36.512Z,9.46
2023-04-16T19:28:03.793Z,9.45
2023-04-16T19:30:30.940Z,9.44
2023-04-16T19:32:57.826Z,9.47
2023-04-16T19:35:24.437Z,9.48
2023-04-16T19:37:51.153Z,9.51
2023-04-16T19:40:17.704Z,9.51
2023-04-16T19:42:45.262Z,9.47
2023-04-16T19:45:11.690Z,9.46
2023-04-16T19:47:38.319Z,9.42
2023-04-16T19:50:05.111Z,9.34
2023-04-16T19:52:37.316Z,9.29
2023-04-16T19:55:04.358Z,9.29
2023-04-16T19:57:30.785Z,9.38
2023-04-16T19:59:57.232Z,9.37
2023-04-16T20:02:23.967Z,9.32
2023-04-16T20:04:50.778Z,9.22
2023-04-16T20:07:17.452Z,9.21
2023-04-16T20:09:43.920Z,9.22
2023-04-16T20:12:10.482Z,9.23
2023-04-16T20:14:36.877Z,9.33
2023-04-16T20:17:03.493Z,9.34
2023-04-16T20:19:31.471Z,9.37
2023-04-16T20:21:57.885Z,9.33
2023-04-16T20:24:26.679Z,9.27
2023-04-16T20:26:53.086Z,9.30
2023-04-16T20:29:19.536Z,9.33
2023-04-16T20:31:46.190Z,9.33
2023-04-16T20:34:12.829Z,9.30
2023-04-16T20:36:39.270Z,9.33
2023-04-16T20:39:07.789Z,9.36
2023-04-16T20:41:34.251Z,9.38
2023-04-16T20:44:05.340Z,9.34
2023-04-16T20:46:34.218Z,9.29
2023-04-16T20:49:03.631Z,9.25
2023-04-16T20:51:30.116Z,9.24
2023-04-16T20:53:56.530Z,9.24
2023-04-16T20:56:22.958Z,9.22
2023-04-16T20:58:49.344Z,9.22
2023-04-16T21:01:18.176Z,9.25
2023-04-16T21:03:44.834Z,9.24
2023-04-16T21:06:14.398Z,9.25
2023-04-16T21:08:40.766Z,9.26
2023-04-16T21:11:07.206Z,9.26
2023-04-16T21:13:33.569Z,9.20
2023-04-16T21:15:59.945Z,9.14
2023-04-16T21:18:26.424Z,9.09
2023-04-16T21:20:52.929Z,9.08
2023-04-16T21:23:19.322Z,9.08
2023-04-16T21:25:45.674Z,9.11
2023-04-16T21:28:12.027Z,9.12
2023-04-16T21:30:38.745Z,9.11
2023-04-16T21:33:05.668Z,9.04
2023-04-16T21:35:33.060Z,9.01
2023-04-16T21:37:59.467Z,9.00
2023-04-16T21:40:26.348Z,8.98
2023-04-16T21:42:52.887Z,9.01
2023-04-16T21:45:19.315Z,9.05
2023-04-16T21:47:45.817Z,9.03
2023-04-16T21:50:12.600Z,9.04
2023-04-16T21:52:40.169Z,9.01
2023-04-16T21:55:09.141Z,9.04
2023-04-16T21:57:35.589Z,9.05
2023-04-16T22:00:02.403Z,9.01
2023-04-16T22:02:29.040Z,9.00
2023-04-16T22:04:55.597Z,9.03
2023-04-16T22:07:22.037Z,8.97
2023-04-16T22:09:48.393Z,8.96
2023-04-16T22:12:14.785Z,8.99
2023-04-16T22:14:49.148Z,8.95
2023-04-16T22:17:27.605Z,8.94
2023-04-16T22:19:54.549Z,8.98
2023-04-16T22:22:21.896Z,9.01
2023-04-16T22:24:48.681Z,9.02
2023-04-16T22:27:15.106Z,8.99
2023-04-16T22:29:41.682Z,8.96
2023-04-16T22:32:08.249Z,8.96
2023-04-16T22:34:35.100Z,8.97
2023-04-16T22:37:03.008Z,8.92
2023-04-16T22:39:30.906Z,8.86
2023-04-16T22:41:57.470Z,8.87
2023-04-16T22:44:23.906Z,8.85
2023-04-16T22:46:50.494Z,8.75
2023-04-16T22:49:16.990Z,8.71
2023-04-16T22:51:43.481Z,8.73
2023-04-16T22:54:13.643Z,8.78
2023-04-16T22:56:41.071Z,8.71
2023-04-16T22:59:08.112Z,8.75
2023-04-16T23:01:34.683Z,8.78
2023-04-16T23:04:01.246Z,8.78
2023-04-16T23:06:27.762Z,8.83
2023-04-16T23:08:54.151Z,8.80
2023-04-16T23:11:20.772Z,8.77
2023-04-16T23:13:47.232Z,8.75
2023-04-16T23:16:13.751Z,8.75
2023-04-16T23:18:40.230Z,8.77
2023-04-16T23:21:06.654Z,8.76
2023-04-16T23:23:33.364Z,8.79
2023-04-16T23:26:00.919Z,8.73
2023-04-16T23:28:27.416Z,8.73
2023-04-16T23:30:53.871Z,8.77
2023-04-16T23:33:20.560Z,8.79
2023-04-16T23:35:47.411Z,8.80
2023-04-16T23:38:13.858Z,8.86
2023-04-16T23:40:40.329Z,8.90
2023-04-16T23:43:06.768Z,8.83
2023-04-16T23:45:33.336Z,8.79
2023-04-16T23:48:00.117Z,8.78
2023-04-16T23:50:26.608Z,8.78
2023-04-16T23:52:53.019Z,8.77
2023-04-16T23:55:19.541Z,8.75
2023-04-16T23:57:46.281Z,8.73
